sensor_id;sensor_type;location;lat;lon;timestamp;pressure;altitude;pressure_sealevel;temperature;humidity
57234;BME280;43090;52.604;13.318;2023-06-19T00:00:28;100872.53;;;17.93;83.17
57234;BME280;43090;52.604;13.318;2023-06-19T00:02:56;100864.84;;;17.89;83.29
57234;BME280;43090;52.604;13.318;2023-06-19T00:05:23;100859.72;;;17.86;83.83
57234;BME280;43090;52.604;13.318;2023-06-19T00:07:51;100863.16;;;17.88;83.62
57234;BME280;43090;52.604;13.318;2023-06-19T00:10:18;100868.59;;;17.78;84.66
57234;BME280;43090;52.604;13.318;2023-06-19T00:12:44;100866.28;;;17.93;84.06
57234;BME280;43090;52.604;13.318;2023-06-19T00:15:11;100859.56;;;17.69;85.45
57234;BME280;43090;52.604;13.318;2023-06-19T00:17:37;100864.50;;;17.74;85.47
57234;BME280;43090;52.604;13.318;2023-06-19T00:20:05;100862.94;;;17.53;86.81
57234;BME280;43090;52.604;13.318;2023-06-19T00:22:33;100863.44;;;17.67;86.34
57234;BME280;43090;52.604;13.318;2023-06-19T00:25:00;100871.25;;;17.70;86.25
57234;BME280;43090;52.604;13.318;2023-06-19T00:27:26;100868.25;;;17.73;85.89
57234;BME280;43090;52.604;13.318;2023-06-19T00:29:53;100866.94;;;17.77;86.42
57234;BME280;43090;52.604;13.318;2023-06-19T00:32:19;100869.47;;;17.78;86.85
57234;BME280;43090;52.604;13.318;2023-06-19T00:34:46;100863.91;;;17.80;86.81
57234;BME280;43090;52.604;13.318;2023-06-19T00:37:13;100871.09;;;17.89;86.37
57234;BME280;43090;52.604;13.318;2023-06-19T00:39:40;100858.28;;;17.91;86.44
57234;BME280;43090;52.604;13.318;2023-06-19T00:42:10;100879.94;;;17.91;86.41
57234;BME280;43090;52.604;13.318;2023-06-19T00:44:37;100863.41;;;17.94;86.33
57234;BME280;43090;52.604;13.318;2023-06-19T00:47:04;100867.81;;;17.95;86.57
57234;BME280;43090;52.604;13.318;2023-06-19T00:49:31;100868.66;;;17.96;86.90
57234;BME280;43090;52.604;13.318;2023-06-19T00:51:57;100865.53;;;17.91;87.18
57234;BME280;43090;52.604;13.318;2023-06-19T00:54:25;100877.78;;;17.95;87.57
57234;BME280;43090;52.604;13.318;2023-06-19T00:56:51;100870.66;;;17.94;87.69
57234;BME280;43090;52.604;13.318;2023-06-19T00:59:19;100864.81;;;17.98;87.14
57234;BME280;43090;52.604;13.318;2023-06-19T01:01:46;100872.16;;;18.06;87.42
57234;BME280;43090;52.604;13.318;2023-06-19T01:04:13;100867.97;;;18.12;87.25
57234;BME280;43090;52.604;13.318;2023-06-19T01:06:48;100869.59;;;18.05;87.55
57234;BME280;43090;52.604;13.318;2023-06-19T01:09:18;100846.84;;;17.97;87.49
57234;BME280;43090;52.604;13.318;2023-06-19T01:11:50;100842.81;;;18.02;87.35
57234;BME280;43090;52.604;13.318;2023-06-19T01:14:19;100849.94;;;18.03;87.68
57234;BME280;43090;52.604;13.318;2023-06-19T01:16:47;100846.22;;;18.04;87.91
57234;BME280;43090;52.604;13.318;2023-06-19T01:19:18;100841.41;;;17.97;88.03
57234;BME280;43090;52.604;13.318;2023-06-19T01:21:46;100848.94;;;18.04;87.80
57234;BME280;43090;52.604;13.318;2023-06-19T01:24:13;100855.66;;;18.00;87.99
57234;BME280;43090;52.604;13.318;2023-06-19T01:26:41;100849.94;;;18.03;87.87
57234;BME280;43090;52.604;13.318;2023-06-19T01:29:08;100843.44;;;17.95;88.11
57234;BME280;43090;52.604;13.318;2023-06-19T01:31:36;100848.22;;;18.02;87.96
57234;BME280;43090;52.604;13.318;2023-06-19T01:34:06;100842.63;;;17.85;88.91
57234;BME280;43090;52.604;13.318;2023-06-19T01:51:41;100831.72;;;17.03;96.81
57234;BME280;43090;52.604;13.318;2023-06-19T01:54:07;100826.63;;;17.28;95.47
57234;BME280;43090;52.604;13.318;2023-06-19T01:56:35;100832.63;;;17.49;94.18
57234;BME280;43090;52.604;13.318;2023-06-19T01:59:02;100825.13;;;17.61;93.74
57234;BME280;43090;52.604;13.318;2023-06-19T02:01:29;100831.56;;;17.78;93.20
57234;BME280;43090;52.604;13.318;2023-06-19T02:03:55;100820.50;;;17.72;93.94
57234;BME280;43090;52.604;13.318;2023-06-19T02:06:22;100825.28;;;17.78;93.38
57234;BME280;43090;52.604;13.318;2023-06-19T02:08:48;100813.69;;;17.86;92.83
57234;BME280;43090;52.604;13.318;2023-06-19T02:11:15;100822.34;;;17.89;92.38
57234;BME280;43090;52.604;13.318;2023-06-19T02:13:42;100816.88;;;17.99;91.38
57234;BME280;43090;52.604;13.318;2023-06-19T02:16:08;100818.75;;;17.98;91.36
57234;BME280;43090;52.604;13.318;2023-06-19T02:18:35;100810.75;;;17.79;91.90
57234;BME280;43090;52.604;13.318;2023-06-19T02:21:01;100808.44;;;17.84;91.63
57234;BME280;43090;52.604;13.318;2023-06-19T02:23:28;100805.94;;;17.91;90.96
57234;BME280;43090;52.604;13.318;2023-06-19T02:25:54;100798.56;;;17.93;91.13
57234;BME280;43090;52.604;13.318;2023-06-19T02:28:21;100799.94;;;17.97;90.79
57234;BME280;43090;52.604;13.318;2023-06-19T02:30:47;100798.78;;;18.00;90.26
57234;BME280;43090;52.604;13.318;2023-06-19T02:33:14;100803.19;;;18.01;90.49
57234;BME280;43090;52.604;13.318;2023-06-19T02:35:40;100799.16;;;18.05;89.87
57234;BME280;43090;52.604;13.318;2023-06-19T02:38:08;100784.59;;;18.06;90.08
57234;BME280;43090;52.604;13.318;2023-06-19T02:40:34;100793.97;;;18.11;90.49
57234;BME280;43090;52.604;13.318;2023-06-19T02:43:01;100787.84;;;18.09;90.05
57234;BME280;43090;52.604;13.318;2023-06-19T02:45:27;100791.88;;;18.05;90.39
57234;BME280;43090;52.604;13.318;2023-06-19T02:47:54;100791.78;;;18.15;90.08
57234;BME280;43090;52.604;13.318;2023-06-19T02:50:20;100789.28;;;17.95;91.06
57234;BME280;43090;52.604;13.318;2023-06-19T02:52:47;100790.16;;;18.04;90.68
57234;BME280;43090;52.604;13.318;2023-06-19T02:55:14;100774.31;;;18.09;90.39
57234;BME280;43090;52.604;13.318;2023-06-19T02:57:40;100791.09;;;18.13;90.35
57234;BME280;43090;52.604;13.318;2023-06-19T03:00:07;100770.97;;;18.15;89.80
57234;BME280;43090;52.604;13.318;2023-06-19T03:02:35;100775.47;;;18.07;89.77
57234;BME280;43090;52.604;13.318;2023-06-19T03:05:02;100775.69;;;18.13;89.84
57234;BME280;43090;52.604;13.318;2023-06-19T03:07:29;100767.94;;;18.19;89.35
57234;BME280;43090;52.604;13.318;2023-06-19T03:09:55;100775.59;;;18.23;89.40
57234;BME280;43090;52.604;13.318;2023-06-19T03:12:22;100775.59;;;18.23;89.41
57234;BME280;43090;52.604;13.318;2023-06-19T03:14:48;100779.66;;;18.19;89.58
57234;BME280;43090;52.604;13.318;2023-06-19T03:17:15;100775.28;;;18.26;89.36
57234;BME280;43090;52.604;13.318;2023-06-19T03:19:41;100769.53;;;18.29;89.22
57234;BME280;43090;52.604;13.318;2023-06-19T03:22:08;100785.13;;;18.27;89.74
57234;BME280;43090;52.604;13.318;2023-06-19T03:24:34;100789.19;;;18.31;89.09
57234;BME280;43090;52.604;13.318;2023-06-19T03:27:04;100786.13;;;18.26;89.09
57234;BME280;43090;52.604;13.318;2023-06-19T03:29:30;100810.94;;;18.40;89.28
57234;BME280;43090;52.604;13.318;2023-06-19T03:31:57;100796.84;;;18.36;89.17
57234;BME280;43090;52.604;13.318;2023-06-19T03:34:23;100809.22;;;18.39;89.50
57234;BME280;43090;52.604;13.318;2023-06-19T03:36:50;100799.41;;;18.38;89.89
57234;BME280;43090;52.604;13.318;2023-06-19T03:39:16;100797.53;;;18.38;89.94
57234;BME280;43090;52.604;13.318;2023-06-19T03:41:43;100804.19;;;18.44;89.88
57234;BME280;43090;52.604;13.318;2023-06-19T03:44:09;100817.28;;;18.48;90.40
57234;BME280;43090;52.604;13.318;2023-06-19T03:46:36;100809.59;;;18.44;90.54
57234;BME280;43090;52.604;13.318;2023-06-19T03:49:02;100809.53;;;18.54;90.00
57234;BME280;43090;52.604;13.318;2023-06-19T03:51:31;100821.19;;;18.54;90.04
57234;BME280;43090;52.604;13.318;2023-06-19T03:53:57;100812.69;;;18.49;89.99
57234;BME280;43090;52.604;13.318;2023-06-19T03:56:24;100817.81;;;18.52;89.36
57234;BME280;43090;52.604;13.318;2023-06-19T03:58:50;100801.38;;;18.54;89.27
57234;BME280;43090;52.604;13.318;2023-06-19T04:01:17;100810.91;;;18.58;89.23
57234;BME280;43090;52.604;13.318;2023-06-19T04:03:43;100811.44;;;18.61;88.99
57234;BME280;43090;52.604;13.318;2023-06-19T04:06:10;100812.06;;;18.55;89.60
57234;BME280;43090;52.604;13.318;2023-06-19T04:08:37;100788.00;;;18.52;89.85
57234;BME280;43090;52.604;13.318;2023-06-19T04:11:03;100793.47;;;18.60;89.65
57234;BME280;43090;52.604;13.318;2023-06-19T04:13:29;100789.41;;;18.64;89.09
57234;BME280;43090;52.604;13.318;2023-06-19T04:15:56;100784.53;;;18.68;89.31
57234;BME280;43090;52.604;13.318;2023-06-19T04:18:23;100778.41;;;18.66;89.99
57234;BME280;43090;52.604;13.318;2023-06-19T04:20:49;100777.94;;;18.71;89.99
57234;BME280;43090;52.604;13.318;2023-06-19T04:23:16;100771.06;;;18.58;90.05
57234;BME280;43090;52.604;13.318;2023-06-19T04:25:42;100778.22;;;18.68;89.77
57234;BME280;43090;52.604;13.318;2023-06-19T04:28:09;100785.84;;;18.64;90.50
57234;BME280;43090;52.604;13.318;2023-06-19T04:30:35;100795.25;;;18.78;90.09
57234;BME280;43090;52.604;13.318;2023-06-19T04:33:02;100783.78;;;18.58;91.21
57234;BME280;43090;52.604;13.318;2023-06-19T04:35:32;100788.88;;;18.61;91.82
57234;BME280;43090;52.604;13.318;2023-06-19T04:37:58;100799.66;;;18.79;91.09
57234;BME280;43090;52.604;13.318;2023-06-19T04:40:27;100801.72;;;18.85;90.59
57234;BME280;43090;52.604;13.318;2023-06-19T04:42:53;100809.00;;;18.85;90.86
57234;BME280;43090;52.604;13.318;2023-06-19T04:45:20;100809.94;;;18.93;90.07
57234;BME280;43090;52.604;13.318;2023-06-19T04:47:47;100800.47;;;18.71;91.28
57234;BME280;43090;52.604;13.318;2023-06-19T04:50:20;100802.38;;;18.79;91.13
57234;BME280;43090;52.604;13.318;2023-06-19T04:52:48;100797.44;;;18.82;90.77
57234;BME280;43090;52.604;13.318;2023-06-19T04:55:18;100810.25;;;18.90;90.37
57234;BME280;43090;52.604;13.318;2023-06-19T04:57:45;100815.72;;;18.98;90.08
57234;BME280;43090;52.604;13.318;2023-06-19T05:00:11;100814.44;;;18.85;91.11
57234;BME280;43090;52.604;13.318;2023-06-19T05:02:40;100819.41;;;18.89;89.91
57234;BME280;43090;52.604;13.318;2023-06-19T05:05:10;100813.91;;;18.81;90.00
57234;BME280;43090;52.604;13.318;2023-06-19T05:07:37;100822.22;;;18.88;89.63
57234;BME280;43090;52.604;13.318;2023-06-19T05:10:04;100818.06;;;18.93;89.91
57234;BME280;43090;52.604;13.318;2023-06-19T05:12:30;100827.59;;;18.97;89.91
57234;BME280;43090;52.604;13.318;2023-06-19T05:14:57;100822.81;;;18.91;89.37
57234;BME280;43090;52.604;13.318;2023-06-19T05:17:23;100823.81;;;18.90;89.24
57234;BME280;43090;52.604;13.318;2023-06-19T05:19:50;100825.88;;;18.96;88.99
57234;BME280;43090;52.604;13.318;2023-06-19T05:22:16;100822.00;;;18.99;88.81
57234;BME280;43090;52.604;13.318;2023-06-19T05:24:45;100823.19;;;19.05;88.70
57234;BME280;43090;52.604;13.318;2023-06-19T05:27:11;100824.38;;;19.02;88.53
57234;BME280;43090;52.604;13.318;2023-06-19T05:29:38;100829.50;;;19.05;87.96
57234;BME280;43090;52.604;13.318;2023-06-19T05:32:04;100825.19;;;18.94;88.09
57234;BME280;43090;52.604;13.318;2023-06-19T05:34:31;100822.34;;;18.96;87.58
57234;BME280;43090;52.604;13.318;2023-06-19T05:36:58;100832.41;;;19.12;86.47
57234;BME280;43090;52.604;13.318;2023-06-19T05:39:27;100842.91;;;19.07;86.96
57234;BME280;43090;52.604;13.318;2023-06-19T05:41:53;100833.06;;;19.14;86.83
57234;BME280;43090;52.604;13.318;2023-06-19T05:44:20;100830.06;;;19.17;86.23
57234;BME280;43090;52.604;13.318;2023-06-19T05:46:46;100836.19;;;19.27;85.89
57234;BME280;43090;52.604;13.318;2023-06-19T05:49:13;100830.09;;;19.25;85.89
57234;BME280;43090;52.604;13.318;2023-06-19T05:51:40;100836.84;;;19.21;86.19
57234;BME280;43090;52.604;13.318;2023-06-19T05:54:07;100824.81;;;19.24;85.96
57234;BME280;43090;52.604;13.318;2023-06-19T05:56:33;100825.63;;;19.16;86.04
57234;BME280;43090;52.604;13.318;2023-06-19T05:59:00;100833.78;;;19.16;87.58
57234;BME280;43090;52.604;13.318;2023-06-19T06:01:30;100832.16;;;19.31;86.89
57234;BME280;43090;52.604;13.318;2023-06-19T06:04:03;100811.38;;;19.14;89.16
57234;BME280;43090;52.604;13.318;2023-06-19T06:06:29;100814.97;;;19.23;89.90
57234;BME280;43090;52.604;13.318;2023-06-19T06:08:56;100820.09;;;19.34;89.57
57234;BME280;43090;52.604;13.318;2023-06-19T06:11:23;100802.97;;;19.34;89.57
57234;BME280;43090;52.604;13.318;2023-06-19T06:13:49;100819.75;;;19.29;90.90
57234;BME280;43090;52.604;13.318;2023-06-19T06:16:16;100799.59;;;18.97;91.41
57234;BME280;43090;52.604;13.318;2023-06-19T06:18:44;100808.28;;;19.09;91.58
57234;BME280;43090;52.604;13.318;2023-06-19T06:21:17;100798.91;;;18.95;92.28
57234;BME280;43090;52.604;13.318;2023-06-19T06:23:44;100815.44;;;19.18;91.24
57234;BME280;43090;52.604;13.318;2023-06-19T06:26:11;100802.56;;;19.12;90.08
57234;BME280;43090;52.604;13.318;2023-06-19T06:28:38;100807.50;;;19.25;90.28
57234;BME280;43090;52.604;13.318;2023-06-19T06:31:06;100793.44;;;19.29;90.60
57234;BME280;43090;52.604;13.318;2023-06-19T06:33:32;100820.63;;;19.46;87.44
57234;BME280;43090;52.604;13.318;2023-06-19T06:35:59;100815.09;;;19.13;90.64
57234;BME280;43090;52.604;13.318;2023-06-19T06:38:27;100809.53;;;19.23;89.63
57234;BME280;43090;52.604;13.318;2023-06-19T06:40:54;100817.91;;;19.46;88.36
57234;BME280;43090;52.604;13.318;2023-06-19T06:43:20;100835.78;;;19.57;87.66
57234;BME280;43090;52.604;13.318;2023-06-19T06:45:47;100828.47;;;19.57;86.55
57234;BME280;43090;52.604;13.318;2023-06-19T06:48:14;100829.31;;;19.58;85.63
57234;BME280;43090;52.604;13.318;2023-06-19T06:50:42;100822.69;;;19.44;85.50
57234;BME280;43090;52.604;13.318;2023-06-19T06:53:08;100822.03;;;19.50;85.47
57234;BME280;43090;52.604;13.318;2023-06-19T06:55:35;100829.00;;;19.61;87.70
57234;BME280;43090;52.604;13.318;2023-06-19T06:58:02;100841.13;;;19.91;86.11
57234;BME280;43090;52.604;13.318;2023-06-19T07:00:29;100841.06;;;19.67;86.92
57234;BME280;43090;52.604;13.318;2023-06-19T07:02:55;100836.72;;;19.82;87.92
57234;BME280;43090;52.604;13.318;2023-06-19T07:05:22;100842.84;;;20.09;86.57
57234;BME280;43090;52.604;13.318;2023-06-19T07:07:51;100851.66;;;19.86;88.83
57234;BME280;43090;52.604;13.318;2023-06-19T07:10:17;100846.94;;;19.96;86.68
57234;BME280;43090;52.604;13.318;2023-06-19T07:12:45;100851.13;;;19.91;85.26
57234;BME280;43090;52.604;13.318;2023-06-19T07:15:12;100849.56;;;19.80;87.14
57234;BME280;43090;52.604;13.318;2023-06-19T07:17:38;100836.19;;;19.87;86.65
57234;BME280;43090;52.604;13.318;2023-06-19T07:20:05;100840.78;;;19.94;85.44
57234;BME280;43090;52.604;13.318;2023-06-19T07:22:32;100839.44;;;20.23;83.90
57234;BME280;43090;52.604;13.318;2023-06-19T07:24:59;100847.94;;;20.04;84.46
57234;BME280;43090;52.604;13.318;2023-06-19T07:27:25;100839.44;;;20.07;82.35
57234;BME280;43090;52.604;13.318;2023-06-19T07:29:54;100843.16;;;19.89;77.92
57234;BME280;43090;52.604;13.318;2023-06-19T07:32:20;100850.50;;;20.30;79.98
57234;BME280;43090;52.604;13.318;2023-06-19T07:34:47;100846.91;;;20.13;83.56
57234;BME280;43090;52.604;13.318;2023-06-19T07:37:14;100845.91;;;20.47;79.68
57234;BME280;43090;52.604;13.318;2023-06-19T07:39:45;100854.88;;;20.56;77.27
57234;BME280;43090;52.604;13.318;2023-06-19T07:42:15;100850.69;;;20.20;80.95
57234;BME280;43090;52.604;13.318;2023-06-19T07:44:48;100861.84;;;20.83;78.82
57234;BME280;43090;52.604;13.318;2023-06-19T07:47:15;100859.47;;;20.80;77.39
57234;BME280;43090;52.604;13.318;2023-06-19T07:49:42;100854.19;;;20.62;75.49
57234;BME280;43090;52.604;13.318;2023-06-19T07:52:08;100854.91;;;20.72;74.40
57234;BME280;43090;52.604;13.318;2023-06-19T07:54:55;100860.00;;;20.59;75.74
57234;BME280;43090;52.604;13.318;2023-06-19T07:57:22;100857.56;;;20.97;74.54
57234;BME280;43090;52.604;13.318;2023-06-19T07:59:50;100841.56;;;20.94;76.48
57234;BME280;43090;52.604;13.318;2023-06-19T08:02:17;100862.00;;;20.90;79.43
57234;BME280;43090;52.604;13.318;2023-06-19T08:04:45;100860.81;;;20.84;77.23
57234;BME280;43090;52.604;13.318;2023-06-19T08:07:12;100854.53;;;20.67;77.88
57234;BME280;43090;52.604;13.318;2023-06-19T08:09:39;100855.72;;;20.64;75.08
57234;BME280;43090;52.604;13.318;2023-06-19T08:12:08;100869.81;;;20.93;75.54
57234;BME280;43090;52.604;13.318;2023-06-19T08:14:34;100847.91;;;20.53;78.56
57234;BME280;43090;52.604;13.318;2023-06-19T08:17:01;100874.91;;;20.96;75.26
57234;BME280;43090;52.604;13.318;2023-06-19T08:19:29;100847.41;;;20.83;75.57
57234;BME280;43090;52.604;13.318;2023-06-19T08:21:55;100874.91;;;20.96;78.25
57234;BME280;43090;52.604;13.318;2023-06-19T08:24:22;100860.16;;;20.74;76.35
57234;BME280;43090;52.604;13.318;2023-06-19T08:26:48;100867.56;;;21.05;76.69
57234;BME280;43090;52.604;13.318;2023-06-19T08:29:18;100874.31;;;20.69;81.88
57234;BME280;43090;52.604;13.318;2023-06-19T08:31:44;100865.59;;;20.90;79.18
57234;BME280;43090;52.604;13.318;2023-06-19T08:34:11;100875.97;;;20.78;79.91
57234;BME280;43090;52.604;13.318;2023-06-19T08:36:37;100866.78;;;20.79;77.18
57234;BME280;43090;52.604;13.318;2023-06-19T08:39:04;100865.59;;;20.90;76.88
57234;BME280;43090;52.604;13.318;2023-06-19T08:41:31;100866.78;;;20.88;81.65
57234;BME280;43090;52.604;13.318;2023-06-19T08:43:57;100858.94;;;20.85;76.17
57234;BME280;43090;52.604;13.318;2023-06-19T08:46:24;100859.56;;;21.03;74.25
57234;BME280;43090;52.604;13.318;2023-06-19T08:48:50;100867.94;;;20.93;75.05
57234;BME280;43090;52.604;13.318;2023-06-19T08:51:17;100861.00;;;20.83;76.68
57234;BME280;43090;52.604;13.318;2023-06-19T08:53:48;100863.31;;;21.02;80.14
57234;BME280;43090;52.604;13.318;2023-06-19T08:56:17;100854.56;;;20.59;81.29
57234;BME280;43090;52.604;13.318;2023-06-19T08:58:44;100864.41;;;20.68;81.99
57234;BME280;43090;52.604;13.318;2023-06-19T09:01:10;100854.88;;;20.64;81.48
57234;BME280;43090;52.604;13.318;2023-06-19T09:03:37;100855.91;;;20.63;80.07
57234;BME280;43090;52.604;13.318;2023-06-19T09:06:04;100858.69;;;21.11;78.76
57234;BME280;43090;52.604;13.318;2023-06-19T09:08:32;100851.63;;;20.69;77.47
57234;BME280;43090;52.604;13.318;2023-06-19T09:11:01;100859.56;;;21.03;76.04
57234;BME280;43090;52.604;13.318;2023-06-19T09:13:28;100866.69;;;21.12;76.37
57234;BME280;43090;52.604;13.318;2023-06-19T09:15:59;100867.84;;;21.26;75.58
57234;BME280;43090;52.604;13.318;2023-06-19T09:18:26;100875.31;;;21.24;76.32
57234;BME280;43090;52.604;13.318;2023-06-19T09:20:54;100880.09;;;21.22;77.06
57234;BME280;43090;52.604;13.318;2023-06-19T09:23:20;100875.03;;;21.59;75.65
57234;BME280;43090;52.604;13.318;2023-06-19T09:25:47;100872.88;;;21.46;77.04
57234;BME280;43090;52.604;13.318;2023-06-19T09:33:21;100860.66;;;21.34;77.11
57234;BME280;43090;52.604;13.318;2023-06-19T09:35:50;100865.91;;;21.35;81.61
57234;BME280;43090;52.604;13.318;2023-06-19T09:38:18;100861.84;;;21.39;80.50
57234;BME280;43090;52.604;13.318;2023-06-19T09:40:47;100858.25;;;21.39;78.27
57234;BME280;43090;52.604;13.318;2023-06-19T09:43:18;100861.84;;;21.39;78.03
57234;BME280;43090;52.604;13.318;2023-06-19T09:45:48;100871.91;;;21.70;76.12
57234;BME280;43090;52.604;13.318;2023-06-19T09:48:19;100866.19;;;21.88;73.06
57234;BME280;43090;52.604;13.318;2023-06-19T09:50:50;100873.56;;;21.79;75.53
57234;BME280;43090;52.604;13.318;2023-06-19T09:53:18;100875.69;;;21.92;79.89
57234;BME280;43090;52.604;13.318;2023-06-19T09:55:49;100870.28;;;21.84;80.07
57234;BME280;43090;52.604;13.318;2023-06-19T09:58:20;100876.13;;;22.04;79.16
57234;BME280;43090;52.604;13.318;2023-06-19T10:00:47;100868.22;;;21.55;84.04
57234;BME280;43090;52.604;13.318;2023-06-19T10:03:16;100861.69;;;21.95;76.73
57234;BME280;43090;52.604;13.318;2023-06-19T10:05:43;100855.94;;;21.90;80.84
57234;BME280;43090;52.604;13.318;2023-06-19T10:08:10;100856.72;;;21.76;79.94
57234;BME280;43090;52.604;13.318;2023-06-19T10:10:46;100854.66;;;21.78;76.66
57234;BME280;43090;52.604;13.318;2023-06-19T10:13:16;100844.38;;;21.88;75.23
57234;BME280;43090;52.604;13.318;2023-06-19T10:15:44;100847.13;;;21.80;78.47
57234;BME280;43090;52.604;13.318;2023-06-19T10:18:15;100847.63;;;21.60;81.45
57234;BME280;43090;52.604;13.318;2023-06-19T10:20:45;100841.38;;;21.75;80.29
57234;BME280;43090;52.604;13.318;2023-06-19T10:23:22;100826.94;;;21.98;77.98
57234;BME280;43090;52.604;13.318;2023-06-19T10:28:24;100821.38;;;22.29;78.60
57234;BME280;43090;52.604;13.318;2023-06-19T10:31:05;100821.44;;;22.44;74.09
57234;BME280;43090;52.604;13.318;2023-06-19T10:33:36;100813.47;;;22.19;77.14
57234;BME280;43090;52.604;13.318;2023-06-19T10:36:16;100809.78;;;22.50;73.69
57234;BME280;43090;52.604;13.318;2023-06-19T10:38:45;100811.31;;;22.98;72.00
57234;BME280;43090;52.604;13.318;2023-06-19T10:41:20;100788.72;;;22.74;70.55
57234;BME280;43090;52.604;13.318;2023-06-19T10:44:05;100798.16;;;22.86;72.46
57234;BME280;43090;52.604;13.318;2023-06-19T10:46:33;100789.59;;;22.74;72.90
57234;BME280;43090;52.604;13.318;2023-06-19T10:49:00;100785.81;;;22.90;70.41
57234;BME280;43090;52.604;13.318;2023-06-19T10:51:34;100774.13;;;22.82;68.98
57234;BME280;43090;52.604;13.318;2023-06-19T10:54:01;100778.63;;;23.04;75.96
57234;BME280;43090;52.604;13.318;2023-06-19T10:56:28;100787.13;;;22.94;72.20
57234;BME280;43090;52.604;13.318;2023-06-19T10:59:06;100770.75;;;22.94;69.65
57234;BME280;43090;52.604;13.318;2023-06-19T11:01:34;100778.19;;;22.71;72.00
57234;BME280;43090;52.604;13.318;2023-06-19T11:04:06;100766.31;;;22.63;72.30
57234;BME280;43090;52.604;13.318;2023-06-19T11:06:33;100762.66;;;22.56;75.73
57234;BME280;43090;52.604;13.318;2023-06-19T11:09:03;100763.63;;;22.25;79.95
57234;BME280;43090;52.604;13.318;2023-06-19T11:11:42;100767.91;;;22.43;75.13
57234;BME280;43090;52.604;13.318;2023-06-19T11:14:09;100773.19;;;22.59;77.38
57234;BME280;43090;52.604;13.318;2023-06-19T11:16:41;100775.28;;;22.57;75.22
57234;BME280;43090;52.604;13.318;2023-06-19T11:19:13;100785.41;;;23.23;73.40
57234;BME280;43090;52.604;13.318;2023-06-19T11:21:40;100782.84;;;23.37;66.38
57234;BME280;43090;52.604;13.318;2023-06-19T11:24:10;100784.75;;;23.79;63.35
57234;BME280;43090;52.604;13.318;2023-06-19T11:26:38;100778.81;;;23.76;66.84
57234;BME280;43090;52.604;13.318;2023-06-19T11:29:21;100785.44;;;24.32;61.97
57234;BME280;43090;52.604;13.318;2023-06-19T11:31:48;100785.59;;;24.52;62.98
57234;BME280;43090;52.604;13.318;2023-06-19T11:34:16;100788.63;;;24.35;65.14
57234;BME280;43090;52.604;13.318;2023-06-19T11:36:46;100786.50;;;24.09;64.12
57234;BME280;43090;52.604;13.318;2023-06-19T11:39:15;100783.81;;;24.37;64.55
57234;BME280;43090;52.604;13.318;2023-06-19T11:41:44;100780.53;;;24.55;62.53
57234;BME280;43090;52.604;13.318;2023-06-19T11:44:11;100772.25;;;24.14;66.53
57234;BME280;43090;52.604;13.318;2023-06-19T11:46:38;100780.13;;;24.52;60.44
57234;BME280;43090;52.604;13.318;2023-06-19T11:49:24;100777.56;;;24.78;58.42
57234;BME280;43090;52.604;13.318;2023-06-19T11:51:51;100776.13;;;24.54;60.30
57234;BME280;43090;52.604;13.318;2023-06-19T11:54:19;100781.56;;;24.76;57.15
57234;BME280;43090;52.604;13.318;2023-06-19T11:56:46;100783.47;;;24.54;57.25
57234;BME280;43090;52.604;13.318;2023-06-19T11:59:16;100782.06;;;24.29;59.04
57234;BME280;43090;52.604;13.318;2023-06-19T12:01:51;100784.47;;;24.46;60.07
57234;BME280;43090;52.604;13.318;2023-06-19T12:04:18;100776.09;;;24.83;57.42
57234;BME280;43090;52.604;13.318;2023-06-19T12:06:45;100768.50;;;24.78;54.65
57234;BME280;43090;52.604;13.318;2023-06-19T12:09:11;100770.69;;;24.96;56.99
57234;BME280;43090;52.604;13.318;2023-06-19T12:11:38;100770.59;;;24.76;58.99
57234;BME280;43090;52.604;13.318;2023-06-19T12:14:04;100783.19;;;24.64;65.18
57234;BME280;43090;52.604;13.318;2023-06-19T12:16:31;100767.38;;;24.66;58.89
57234;BME280;43090;52.604;13.318;2023-06-19T12:18:57;100769.13;;;24.80;57.63
57234;BME280;43090;52.604;13.318;2023-06-19T12:21:24;100759.63;;;24.69;56.10
57234;BME280;43090;52.604;13.318;2023-06-19T12:24:03;100757.22;;;24.94;53.84
57234;BME280;43090;52.604;13.318;2023-06-19T12:26:30;100761.97;;;25.27;59.27
57234;BME280;43090;52.604;13.318;2023-06-19T12:28:57;100766.91;;;25.46;53.00
57234;BME280;43090;52.604;13.318;2023-06-19T12:31:23;100756.03;;;25.17;52.24
57234;BME280;43090;52.604;13.318;2023-06-19T12:33:51;100751.09;;;25.54;51.31
57234;BME280;43090;52.604;13.318;2023-06-19T12:36:17;100763.31;;;25.52;51.38
57234;BME280;43090;52.604;13.318;2023-06-19T12:38:44;100753.63;;;25.49;52.63
57234;BME280;43090;52.604;13.318;2023-06-19T12:41:11;100762.50;;;25.65;55.66
57234;BME280;43090;52.604;13.318;2023-06-19T12:43:38;100763.06;;;25.40;55.75
57234;BME280;43090;52.604;13.318;2023-06-19T12:46:04;100772.50;;;25.31;55.14
57234;BME280;43090;52.604;13.318;2023-06-19T12:48:31;100760.69;;;25.23;52.68
57234;BME280;43090;52.604;13.318;2023-06-19T12:50:58;100757.00;;;25.58;46.23
57234;BME280;43090;52.604;13.318;2023-06-19T12:53:24;100759.50;;;25.39;53.62
57234;BME280;43090;52.604;13.318;2023-06-19T12:55:58;100748.09;;;25.36;54.33
57234;BME280;43090;52.604;13.318;2023-06-19T12:58:30;100753.88;;;25.81;45.90
57234;BME280;43090;52.604;13.318;2023-06-19T13:00:56;100762.47;;;25.38;53.14
57234;BME280;43090;52.604;13.318;2023-06-19T13:03:23;100749.81;;;25.37;50.33
57234;BME280;43090;52.604;13.318;2023-06-19T13:05:50;100747.47;;;25.34;49.37